createdAt,value
2019-04-10T00:00:35.406Z,2.50
2019-04-10T00:03:04.329Z,2.27
2019-04-10T00:05:33.910Z,2.50
2019-04-10T00:08:02.462Z,2.50
2019-04-10T00:10:31.921Z,2.30
2019-04-10T00:13:00.884Z,2.40
2019-04-10T00:15:30.539Z,2.43
2019-04-10T00:17:59.848Z,2.00
2019-04-10T00:20:28.830Z,2.20
2019-04-10T00:22:58.236Z,2.27
2019-04-10T00:25:26.928Z,2.33
2019-04-10T00:27:55.405Z,2.60
2019-04-10T00:30:24.976Z,2.17
2019-04-10T00:32:54.414Z,2.77
2019-04-10T00:35:23.573Z,3.07
2019-04-10T00:37:53.328Z,2.90
2019-04-10T00:40:21.890Z,2.30
2019-04-10T00:42:50.354Z,2.33
2019-04-10T00:45:19.497Z,2.60
2019-04-10T00:47:48.185Z,2.83
2019-04-10T00:50:16.667Z,3.37
2019-04-10T00:52:46.239Z,3.30
2019-04-10T00:55:15.331Z,2.90
2019-04-10T00:57:44.200Z,2.87
2019-04-10T01:00:12.905Z,3.00
2019-04-10T01:02:41.410Z,2.70
2019-04-10T01:05:11.001Z,2.90
2019-04-10T01:07:41.662Z,2.90
2019-04-10T01:10:10.180Z,2.80
2019-04-10T01:12:38.646Z,2.67
2019-04-10T01:15:08.051Z,2.90
2019-04-10T01:17:36.543Z,3.47
2019-04-10T01:20:07.181Z,3.23
2019-04-10T01:22:35.760Z,3.40
2019-04-10T01:25:06.175Z,3.20
2019-04-10T01:27:34.634Z,3.17
2019-04-10T01:30:04.289Z,2.80
2019-04-10T01:32:32.888Z,3.37
2019-04-10T01:35:02.470Z,2.80
2019-04-10T01:37:31.142Z,2.90
2019-04-10T01:39:59.625Z,2.80
2019-04-10T01:42:28.406Z,2.83
2019-04-10T01:44:57.384Z,2.80
2019-04-10T01:47:26.852Z,2.80
2019-04-10T01:49:55.789Z,2.80
2019-04-10T01:52:24.830Z,2.70
2019-04-10T01:54:53.459Z,3.50
2019-04-10T01:57:22.061Z,3.23
2019-04-10T01:59:50.485Z,3.30
2019-04-10T02:02:21.120Z,3.10
2019-04-10T02:04:52.110Z,3.50
2019-04-10T02:07:20.203Z,3.27
2019-04-10T02:09:49.776Z,3.20
2019-04-10T02:12:18.703Z,3.20
2019-04-10T02:14:47.135Z,3.10
2019-04-10T02:17:16.732Z,2.83
2019-04-10T02:19:46.126Z,3.57
2019-04-10T02:22:14.807Z,3.03
2019-04-10T02:24:43.277Z,3.40
2019-04-10T02:27:11.787Z,3.90
2019-04-10T02:29:40.288Z,3.17
2019-04-10T02:32:10.150Z,3.33
2019-04-10T02:34:39.337Z,3.10
2019-04-10T02:37:08.684Z,3.23
2019-04-10T02:39:42.459Z,2.90
2019-04-10T02:42:08.210Z,3.60
2019-04-10T02:44:37.693Z,2.67
2019-04-10T02:47:06.944Z,3.17
2019-04-10T02:49:36.544Z,3.20
2019-04-10T02:52:06.594Z,3.03
2019-04-10T02:54:35.783Z,2.97
2019-04-10T02:57:05.583Z,2.90
2019-04-10T02:59:35.170Z,3.00
2019-04-10T03:02:04.305Z,2.90
2019-04-10T03:04:33.129Z,2.63
2019-04-10T03:07:02.178Z,2.80
2019-04-10T03:09:45.997Z,3.43
2019-04-10T03:12:01.527Z,2.60
2019-04-10T03:14:30.131Z,2.70
2019-04-10T03:16:59.697Z,2.87
2019-04-10T03:19:28.393Z,2.70
2019-04-10T03:21:57.650Z,2.80
2019-04-10T03:24:27.358Z,3.10
2019-04-10T03:26:56.218Z,3.37
2019-04-10T03:29:24.631Z,3.20
2019-04-10T03:31:55.392Z,3.30
2019-04-10T03:34:27.810Z,3.17
2019-04-10T03:36:56.023Z,2.77
2019-04-10T03:39:25.688Z,4.30
2019-04-10T03:41:54.734Z,2.77
2019-04-10T03:44:23.195Z,2.93
2019-04-10T03:46:52.819Z,3.17
2019-04-10T03:49:22.124Z,3.10
2019-04-10T03:51:50.638Z,4.40
2019-04-10T03:54:19.116Z,4.00
2019-04-10T03:56:47.932Z,3.30
2019-04-10T03:59:16.403Z,2.93
2019-04-10T04:01:45.156Z,3.00
2019-04-10T04:04:13.673Z,3.17
2019-04-10T04:06:42.171Z,3.00
2019-04-10T04:09:12.904Z,2.90
2019-04-10T04:11:42.012Z,3.10
2019-04-10T04:14:10.483Z,2.90
2019-04-10T04:16:49.173Z,3.00
2019-04-10T04:19:17.814Z,3.37
2019-04-10T04:21:46.253Z,3.63
2019-04-10T04:24:15.579Z,4.63
2019-04-10T04:26:44.421Z,4.30
2019-04-10T04:29:12.907Z,4.27
2019-04-10T04:31:41.991Z,3.27
2019-04-10T04:34:12.053Z,3.10
2019-04-10T04:36:40.936Z,3.23
2019-04-10T04:39:20.983Z,3.20
2019-04-10T04:41:40.108Z,3.23
2019-04-10T04:44:08.877Z,3.27
2019-04-10T04:46:38.681Z,3.40
2019-04-10T04:49:07.474Z,3.03
2019-04-10T04:51:36.893Z,3.70
2019-04-10T04:54:06.594Z,3.70
2019-04-10T04:56:35.716Z,4.30
2019-04-10T04:59:04.346Z,5.13
2019-04-10T05:01:32.846Z,5.30
2019-04-10T05:04:02.392Z,4.27
2019-04-10T05:06:31.091Z,4.43
2019-04-10T05:08:59.590Z,4.53
2019-04-10T05:11:28.675Z,4.53
2019-04-10T05:13:57.474Z,4.73
2019-04-10T05:16:25.960Z,5.70
2019-04-10T05:18:54.459Z,5.10
2019-04-10T05:21:23.239Z,4.30
2019-04-10T05:23:51.756Z,5.57
2019-04-10T05:26:20.781Z,5.30
2019-04-10T05:28:50.740Z,5.20
2019-04-10T05:31:19.757Z,5.20
2019-04-10T05:33:49.149Z,5.00
2019-04-10T05:36:17.655Z,5.00
2019-04-10T05:38:46.157Z,6.10
2019-04-10T05:41:15.499Z,4.90
2019-04-10T05:43:44.781Z,5.30
2019-04-10T05:46:14.411Z,5.60
2019-04-10T05:48:44.046Z,5.43
2019-04-10T05:51:12.701Z,6.07
2019-04-10T05:53:41.187Z,6.03
2019-04-10T05:56:09.900Z,5.50
2019-04-10T05:58:38.670Z,5.77
2019-04-10T06:01:08.111Z,5.80
2019-04-10T06:03:36.687Z,5.03
2019-04-10T06:06:06.184Z,5.10
2019-04-10T06:08:35.190Z,5.60
2019-04-10T06:11:04.516Z,5.50
2019-04-10T06:13:33.196Z,5.70
2019-04-10T06:16:01.887Z,6.40
2019-04-10T06:18:31.290Z,6.43
2019-04-10T06:21:00.841Z,5.80
2019-04-10T06:23:29.647Z,5.20
2019-04-10T06:25:58.431Z,5.47
2019-04-10T06:28:27.912Z,5.50
2019-04-10T06:31:12.420Z,4.90
2019-04-10T06:33:40.905Z,4.90
2019-04-10T06:36:09.390Z,5.07
2019-04-10T06:38:39.417Z,5.23
2019-04-10T06:41:08.372Z,5.40
2019-04-10T06:43:37.257Z,5.77
2019-04-10T06:46:06.376Z,6.97
2019-04-10T06:48:36.189Z,7.13
2019-04-10T06:51:06.114Z,6.57
2019-04-10T06:53:35.247Z,6.67
2019-04-10T06:56:04.842Z,6.87
2019-04-10T06:58:34.063Z,6.00
2019-04-10T07:01:02.617Z,5.57
2019-04-10T07:03:46.959Z,6.43
2019-04-10T07:06:09.686Z,6.13
2019-04-10T07:08:31.990Z,5.37
2019-04-10T07:11:06.837Z,5.73
2019-04-10T07:13:32.143Z,4.90
2019-04-10T07:16:00.758Z,6.13
2019-04-10T07:18:29.333Z,6.00
2019-04-10T07:21:01.075Z,6.27
2019-04-10T07:23:30.404Z,6.20
2019-04-10T07:25:58.404Z,5.80
2019-04-10T07:28:27.804Z,7.07
2019-04-10T07:30:59.369Z,6.63
2019-04-10T07:33:26.739Z,9.10
2019-04-10T07:35:56.633Z,10.03
2019-04-10T07:38:25.378Z,9.17
2019-04-10T07:40:54.735Z,8.13
2019-04-10T07:43:27.213Z,9.20
2019-04-10T07:45:56.628Z,9.10
2019-04-10T07:48:25.113Z,8.97
2019-04-10T07:50:53.729Z,9.10
2019-04-10T07:53:22.684Z,9.43
2019-04-10T07:56:02.257Z,9.70
2019-04-10T07:58:21.553Z,10.10
2019-04-10T08:00:51.325Z,10.07
2019-04-10T08:03:20.833Z,10.40
2019-04-10T08:05:50.302Z,10.43
2019-04-10T08:08:19.364Z,9.60
2019-04-10T08:10:48.781Z,10.17
2019-04-10T08:13:17.755Z,10.27
2019-04-10T08:15:46.205Z,10.70
2019-04-10T08:18:14.786Z,11.00
2019-04-10T08:20:43.497Z,10.53
2019-04-10T08:23:12.347Z,10.60
2019-04-10T08:25:40.990Z,12.03
2019-04-10T08:28:09.722Z,10.63
2019-04-10T08:30:38.266Z,11.50
2019-04-10T08:33:07.797Z,11.07
2019-04-10T08:35:37.715Z,11.60
2019-04-10T08:38:07.573Z,11.67
2019-04-10T08:40:36.310Z,11.60
2019-04-10T08:43:04.874Z,12.30
2019-04-10T08:45:43.511Z,11.77
2019-04-10T08:48:04.353Z,11.67
2019-04-10T08:50:32.925Z,12.23
2019-04-10T08:53:02.141Z,12.10
2019-04-10T08:55:32.290Z,12.03
2019-04-10T08:58:00.851Z,12.27
2019-04-10T09:00:29.609Z,12.03
2019-04-10T09:02:58.219Z,11.63
2019-04-10T09:05:27.889Z,12.43
2019-04-10T09:07:56.945Z,12.87
2019-04-10T09:10:26.066Z,13.50
2019-04-10T09:15:11.919Z,15.00
2019-04-10T09:17:51.381Z,15.73
2019-04-10T09:20:19.850Z,15.23
2019-04-10T09:23:10.306Z,14.87
2019-04-10T09:25:19.692Z,15.53
2019-04-10T09:27:49.596Z,15.10
2019-04-10T09:30:18.493Z,14.93
2019-04-10T09:32:47.027Z,14.70
2019-04-10T09:35:16.383Z,15.57
2019-04-10T09:37:46.185Z,14.13
2019-04-10T09:40:16.127Z,13.80
2019-04-10T09:42:45.873Z,15.30
2019-04-10T09:45:15.607Z,15.53
2019-04-10T09:47:44.427Z,13.90
2019-04-10T09:50:13.118Z,15.03
2019-04-10T09:52:41.596Z,14.83
2019-04-10T09:55:11.704Z,14.47
2019-04-10T09:57:40.903Z,13.63
2019-04-10T10:00:10.590Z,14.63
2019-04-10T10:02:40.093Z,13.90
2019-04-10T10:05:08.721Z,13.70
2019-04-10T10:07:43.054Z,14.43
2019-04-10T10:10:12.705Z,13.80
2019-04-10T10:12:41.530Z,13.90
2019-04-10T10:15:11.313Z,13.13
2019-04-10T10:17:41.097Z,14.10
2019-04-10T10:20:11.693Z,13.77
2019-04-10T10:22:41.111Z,14.77
2019-04-10T10:25:11.185Z,13.83
2019-04-10T10:27:40.778Z,14.37
2019-04-10T10:30:11.577Z,15.00
2019-04-10T10:32:42.162Z,14.30
2019-04-10T10:35:11.256Z,14.77
2019-04-10T10:37:40.993Z,15.20
2019-04-10T10:40:11.664Z,14.30
2019-04-10T10:42:41.503Z,14.43
2019-04-10T10:45:10.762Z,13.97
2019-04-10T10:47:40.474Z,14.10
2019-04-10T10:50:09.916Z,14.07
2019-04-10T10:52:38.369Z,14.67
2019-04-10T10:55:07.634Z,13.23
2019-04-10T10:57:47.067Z,14.70
2019-04-10T11:00:17.079Z,14.80
2019-04-10T11:02:45.769Z,15.13
2019-04-10T11:05:14.379Z,14.73
2019-04-10T11:07:42.999Z,14.93
2019-04-10T11:10:12.655Z,14.60
2019-04-10T11:12:42.307Z,14.17
2019-04-10T11:15:12.308Z,13.67
2019-04-10T11:17:42.114Z,14.00
2019-04-10T11:20:12.727Z,15.53
2019-04-10T11:22:42.354Z,14.47
2019-04-10T11:25:12.094Z,15.33
2019-04-10T11:27:41.991Z,15.67
2019-04-10T11:30:12.552Z,15.47
2019-04-10T11:32:42.240Z,15.13
2019-04-10T11:35:11.211Z,15.27
2019-04-10T11:40:12.479Z,14.90
2019-04-10T11:42:42.761Z,15.03
2019-04-10T11:45:14.423Z,16.30
2019-04-10T11:47:44.850Z,15.27
2019-04-10T11:50:17.202Z,17.07
2019-04-10T11:52:49.754Z,14.90
2019-04-10T11:55:19.398Z,15.50
2019-04-10T12:02:49.629Z,15.67
2019-04-10T12:05:19.893Z,16.57
2019-04-10T12:08:09.619Z,15.40
2019-04-10T12:12:48.254Z,15.70
2019-04-10T12:15:17.243Z,17.80
2019-04-10T12:17:46.554Z,16.57
2019-04-10T12:20:16.639Z,17.07
2019-04-10T12:22:46.242Z,15.30
2019-04-10T12:25:15.640Z,16.47
2019-04-10T12:27:45.290Z,16.03
2019-04-10T12:30:15.177Z,16.93
2019-04-10T12:32:45.983Z,16.53
2019-04-10T12:35:15.121Z,15.77
2019-04-10T12:37:43.769Z,14.73
2019-04-10T12:40:12.573Z,14.80
2019-04-10T12:42:41.123Z,16.27
2019-04-10T12:45:09.917Z,16.20
2019-04-10T12:47:38.382Z,16.07
2019-04-10T12:50:08.093Z,15.63
2019-04-10T12:52:36.768Z,16.03
2019-04-10T12:55:08.302Z,16.13
2019-04-10T12:57:37.144Z,16.30
2019-04-10T13:00:09.797Z,16.57
2019-04-10T13:02:38.653Z,15.67
2019-04-10T13:05:07.561Z,16.23
2019-04-10T13:07:36.031Z,15.73
2019-04-10T13:10:06.651Z,15.83
2019-04-10T13:12:35.493Z,15.37
2019-04-10T13:15:07.450Z,14.90
2019-04-10T13:17:36.219Z,14.37
2019-04-10T13:20:10.373Z,14.90
2019-04-10T13:22:38.930Z,14.10
2019-04-10T13:25:08.522Z,15.43
2019-04-10T13:27:37.019Z,14.87
2019-04-10T13:30:12.471Z,14.87
2019-04-10T13:32:40.277Z,14.67
2019-04-10T13:35:10.322Z,14.60
2019-04-10T13:37:39.327Z,15.40
2019-04-10T13:40:08.362Z,14.77
2019-04-10T13:42:37.241Z,15.47
2019-04-10T13:45:08.034Z,14.33
2019-04-10T13:47:36.708Z,15.40
2019-04-10T13:50:08.476Z,14.90
2019-04-10T13:52:38.887Z,17.20
2019-04-10T13:55:08.916Z,14.73
2019-04-10T13:57:39.197Z,14.67
2019-04-10T14:00:09.968Z,15.10
2019-04-10T14:02:39.421Z,14.97
2019-04-10T14:05:11.626Z,15.83
2019-04-10T14:07:40.341Z,15.10
2019-04-10T14:10:10.512Z,15.63
2019-04-10T14:12:39.322Z,16.37
2019-04-10T14:15:08.476Z,14.77
2019-04-10T14:17:37.660Z,14.80
2019-04-10T14:20:07.383Z,15.27
2019-04-10T14:22:37.929Z,16.67
2019-04-10T14:25:09.473Z,16.27
2019-04-10T14:27:39.030Z,16.50
2019-04-10T14:30:11.221Z,17.33
2019-04-10T14:32:40.171Z,16.13
2019-04-10T14:35:10.391Z,17.07
2019-04-10T14:37:39.919Z,16.67
2019-04-10T14:40:11.683Z,16.10
2019-04-10T14:42:40.605Z,16.93
2019-04-10T14:45:09.364Z,16.87
2019-04-10T14:47:37.868Z,18.53
2019-04-10T14:50:07.538Z,18.10
2019-04-10T14:52:37.176Z,17.57
2019-04-10T14:55:06.303Z,17.80
2019-04-10T14:57:34.991Z,17.17
2019-04-10T15:00:10.441Z,16.67
2019-04-10T15:02:39.785Z,16.67
2019-04-10T15:05:10.072Z,17.30
2019-04-10T15:07:39.448Z,16.07
2019-04-10T15:10:09.532Z,16.60
2019-04-10T15:12:38.057Z,16.30
2019-04-10T15:15:07.815Z,16.77
2019-04-10T15:17:36.718Z,15.83
2019-04-10T15:20:06.952Z,16.33
2019-04-10T15:22:35.861Z,16.50
2019-04-10T15:25:05.475Z,16.57
2019-04-10T15:27:35.445Z,15.90
2019-04-10T15:30:09.133Z,18.53
2019-04-10T15:32:37.838Z,17.57
2019-04-10T15:35:07.031Z,16.83
2019-04-10T15:37:35.560Z,17.70
2019-04-10T15:40:17.698Z,17.30
2019-04-10T15:42:37.366Z,17.63
2019-04-10T15:45:07.324Z,17.10
2019-04-10T15:47:35.774Z,16.50
2019-04-10T15:50:07.153Z,15.97
2019-04-10T15:52:37.547Z,16.43
2019-04-10T15:55:07.892Z,16.43
2019-04-10T15:57:47.027Z,15.60
2019-04-10T16:00:11.142Z,16.27
2019-04-10T16:02:40.619Z,16.80
2019-04-10T16:05:09.841Z,16.77
2019-04-10T16:07:38.419Z,15.40
2019-04-10T16:10:09.671Z,16.93
2019-04-10T16:12:38.186Z,16.70
2019-04-10T16:15:06.878Z,16.93
2019-04-10T16:17:39.952Z,15.90
2019-04-10T16:20:19.639Z,17.10
2019-04-10T16:22:50.820Z,16.43
2019-04-10T16:25:22.016Z,18.33
2019-04-10T16:27:50.637Z,16.80
2019-04-10T16:30:22.024Z,17.17
2019-04-10T16:32:50.707Z,16.80
2019-04-10T16:35:19.183Z,16.33
2019-04-10T16:37:47.707Z,16.37
2019-04-10T16:40:16.261Z,16.73
2019-04-10T16:42:44.751Z,15.00
2019-04-10T16:45:15.654Z,15.70
2019-04-10T16:47:44.176Z,15.33
2019-04-10T16:50:13.191Z,14.67
2019-04-10T16:52:41.699Z,15.10
2019-04-10T16:55:10.536Z,14.67
2019-04-10T16:57:39.046Z,15.60
2019-04-10T17:00:09.093Z,15.27
2019-04-10T17:02:37.596Z,13.73
2019-04-10T17:05:08.197Z,15.73
2019-04-10T17:07:37.396Z,15.30
2019-04-10T17:10:14.889Z,14.40
2019-04-10T17:12:40.112Z,15.83
2019-04-10T17:15:10.321Z,15.47
2019-04-10T17:17:38.964Z,15.80
2019-04-10T17:20:09.399Z,15.13
2019-04-10T17:22:43.742Z,15.77
2019-04-10T17:25:09.410Z,15.00
2019-04-10T17:27:38.120Z,14.47
2019-04-10T17:30:09.539Z,15.33
2019-04-10T17:32:38.577Z,15.53
2019-04-10T17:35:09.594Z,15.73
2019-04-10T17:37:40.137Z,15.73
2019-04-10T17:40:24.962Z,17.33
2019-04-10T17:42:41.893Z,17.00
2019-04-10T17:45:12.098Z,16.83
2019-04-10T17:47:40.994Z,16.90
2019-04-10T17:50:11.984Z,16.70
2019-04-10T17:52:40.856Z,16.07
2019-04-10T17:55:09.516Z,15.67
2019-04-10T17:57:41.557Z,17.60
2019-04-10T18:00:40.058Z,16.13
2019-04-10T18:03:08.777Z,15.40
2019-04-10T18:05:37.259Z,15.07
2019-04-10T18:08:05.895Z,15.70
2019-04-10T18:10:43.512Z,14.17
2019-04-10T18:13:05.314Z,14.77
2019-04-10T18:15:33.818Z,14.03
2019-04-10T18:18:03.213Z,12.80
2019-04-10T18:20:31.961Z,12.53
2019-04-10T18:23:00.933Z,12.00
2019-04-10T18:25:29.825Z,12.27
2019-04-10T18:27:58.320Z,12.30
2019-04-10T18:30:27.985Z,12.73
2019-04-10T18:32:56.677Z,12.93
2019-04-10T18:35:25.228Z,12.80
2019-04-10T18:37:53.788Z,13.53
2019-04-10T18:40:23.315Z,13.13
2019-04-10T18:42:54.997Z,14.47
2019-04-10T18:45:23.796Z,14.17
2019-04-10T18:47:52.625Z,14.97
2019-04-10T18:50:22.337Z,18.10
2019-04-10T18:52:51.820Z,20.23
2019-04-10T18:55:20.476Z,22.47
2019-04-10T18:57:49.329Z,23.33
2019-04-10T19:00:38.657Z,19.33
2019-04-10T19:03:09.613Z,18.73
2019-04-10T19:05:48.907Z,17.57
2019-04-10T19:08:17.422Z,18.00
2019-04-10T19:10:47.338Z,16.83
2019-04-10T19:13:17.173Z,17.00
2019-04-10T19:15:46.989Z,16.70
2019-04-10T19:18:15.758Z,17.33
2019-04-10T19:20:44.502Z,19.73
2019-04-10T19:23:13.074Z,20.67
2019-04-10T19:25:43.274Z,18.07
2019-04-10T19:28:12.849Z,15.90
2019-04-10T19:30:43.573Z,15.67
2019-04-10T19:33:12.180Z,16.33
2019-04-10T19:35:41.384Z,16.27
2019-04-10T19:38:11.353Z,15.87
2019-04-10T19:40:40.409Z,15.80
2019-04-10T19:43:10.265Z,16.87
2019-04-10T19:45:39.795Z,16.70
2019-04-10T19:48:09.020Z,16.97
2019-04-10T19:50:37.546Z,17.43
2019-04-10T19:53:06.104Z,16.67
2019-04-10T19:55:35.847Z,18.03
2019-04-10T19:58:04.539Z,18.20
2019-04-10T20:00:34.774Z,18.67
2019-04-10T20:03:03.663Z,18.47
2019-04-10T20:05:32.392Z,17.70
2019-04-10T20:08:01.667Z,16.70
2019-04-10T20:10:30.195Z,17.77
2019-04-10T20:12:59.434Z,18.50
2019-04-10T20:15:28.824Z,19.20
2019-04-10T20:17:57.366Z,18.90
2019-04-10T20:20:26.982Z,18.27
2019-04-10T20:22:55.703Z,18.37
2019-04-10T20:25:24.243Z,18.47
2019-04-10T20:27:52.707Z,19.00
2019-04-10T20:30:23.716Z,17.13
2019-04-10T20:32:52.465Z,18.00
2019-04-10T20:35:20.943Z,17.27
2019-04-10T20:37:49.421Z,17.27
2019-04-10T20:40:19.238Z,17.60
2019-04-10T20:42:48.718Z,17.40
2019-04-10T20:45:17.668Z,18.43
2019-04-10T20:47:46.921Z,17.80
2019-04-10T20:50:15.533Z,17.87
2019-04-10T20:52:45.204Z,19.23
2019-04-10T20:55:13.865Z,18.63
2019-04-10T20:57:42.361Z,18.70
2019-04-10T21:00:13.604Z,18.37
2019-04-10T21:02:42.656Z,17.77
2019-04-10T21:05:13.438Z,17.73
2019-04-10T21:07:41.697Z,17.73
2019-04-10T21:10:10.477Z,18.23
2019-04-10T21:12:39.871Z,18.10
2019-04-10T21:15:09.088Z,17.93
2019-04-10T21:17:37.872Z,17.87
2019-04-10T21:20:08.163Z,16.70
2019-04-10T21:22:36.636Z,17.70
2019-04-10T21:25:06.686Z,17.33
2019-04-10T21:27:35.542Z,18.07
2019-04-10T21:30:16.073Z,17.83
2019-04-10T21:32:53.944Z,18.60
2019-04-10T21:35:25.039Z,16.70
2019-04-10T21:37:54.836Z,17.33
2019-04-10T21:40:23.594Z,18.20
2019-04-10T21:42:52.089Z,17.13
2019-04-10T21:45:20.563Z,18.17
2019-04-10T21:47:50.222Z,17.90
2019-04-10T21:50:20.078Z,17.53
2019-04-10T21:52:49.744Z,17.27
2019-04-10T21:55:19.349Z,17.87
2019-04-10T21:57:48.899Z,15.80
2019-04-10T22:00:20.654Z,17.03
2019-04-10T22:02:49.185Z,17.03
2019-04-10T22:05:17.758Z,18.17
2019-04-10T22:07:48.226Z,19.33
2019-04-10T22:10:34.948Z,19.83
2019-04-10T22:13:03.811Z,19.47
2019-04-10T22:15:37.416Z,19.13
2019-04-10T22:18:07.160Z,18.60
2019-04-10T22:20:36.147Z,18.40
2019-04-10T22:23:04.664Z,17.73
2019-04-10T22:25:33.228Z,18.00
2019-04-10T22:28:01.680Z,16.97
2019-04-10T22:30:30.175Z,17.70
2019-04-10T22:32:59.728Z,16.90
2019-04-10T22:35:28.295Z,17.10
2019-04-10T22:37:56.789Z,17.47
2019-04-10T22:40:25.680Z,16.63
2019-04-10T22:42:55.361Z,15.93
2019-04-10T22:45:28.005Z,17.80
2019-04-10T22:47:58.908Z,16.90
2019-04-10T22:50:28.746Z,16.67
2019-04-10T22:52:59.090Z,17.17
2019-04-10T22:55:28.104Z,17.00
2019-04-10T22:57:57.111Z,16.70
2019-04-10T23:00:28.036Z,15.60
2019-04-10T23:02:57.292Z,15.40
2019-04-10T23:05:26.763Z,15.53
2019-04-10T23:07:55.659Z,15.63
2019-04-10T23:10:24.792Z,15.13
2019-04-10T23:12:59.850Z,15.60
2019-04-10T23:15:25.115Z,16.53
2019-04-10T23:17:54.012Z,15.70
2019-04-10T23:20:22.477Z,15.67
2019-04-10T23:22:51.051Z,15.73
2019-04-10T23:25:20.520Z,15.77
2019-04-10T23:27:51.943Z,15.60
2019-04-10T23:30:19.964Z,15.97
2019-04-10T23:32:48.883Z,16.03
2019-04-10T23:35:17.495Z,16.77
2019-04-10T23:37:46.886Z,16.10
2019-04-10T23:40:16.775Z,16.83
2019-04-10T23:42:46.358Z,15.63
2019-04-10T23:45:15.567Z,16.53
2019-04-10T23:47:44.504Z,15.40
2019-04-10T23:50:15.048Z,15.73
2019-04-10T23:52:44.340Z,15.53
2019-04-10T23:55:13.585Z,16.53
2019-04-10T23:57:43.330Z,17.17
